createdAt,value
2023-04-25T00:00:18.444Z,17.70
2023-04-25T00:02:45.694Z,14.60
2023-04-25T00:05:13.470Z,13.43
2023-04-25T00:07:40.642Z,10.97
2023-04-25T00:10:08.932Z,14.93
2023-04-25T00:12:36.996Z,16.67
2023-04-25T00:15:04.812Z,14.03
2023-04-25T00:17:32.492Z,14.27
2023-04-25T00:19:59.554Z,12.83
2023-04-25T00:22:26.555Z,12.53
2023-04-25T00:24:54.487Z,14.33
2023-04-25T00:27:21.543Z,15.70
2023-04-25T00:29:48.511Z,13.13
2023-04-25T00:32:15.583Z,16.13
2023-04-25T00:34:42.515Z,16.17
2023-04-25T00:37:09.964Z,17.37
2023-04-25T00:39:37.005Z,14.43
2023-04-25T00:42:04.546Z,12.43
2023-04-25T00:44:33.313Z,15.93
2023-04-25T00:47:02.795Z,15.63
2023-04-25T00:49:29.851Z,12.57
2023-04-25T00:51:58.072Z,13.37
2023-04-25T00:54:25.671Z,14.80
2023-04-25T00:56:53.514Z,12.53
2023-04-25T00:59:21.575Z,13.17
2023-04-25T01:01:48.767Z,10.43
2023-04-25T01:04:16.033Z,12.80
2023-04-25T01:06:43.345Z,15.30
2023-04-25T01:09:11.306Z,9.60
2023-04-25T01:11:38.551Z,14.03
2023-04-25T01:14:05.530Z,10.50
2023-04-25T01:16:34.281Z,11.00
2023-04-25T01:19:01.620Z,16.73
2023-04-25T01:21:30.835Z,11.57
2023-04-25T01:23:58.669Z,17.63
2023-04-25T01:26:26.654Z,18.17
2023-04-25T01:28:53.850Z,14.87
2023-04-25T01:31:21.097Z,10.90
2023-04-25T01:33:49.824Z,12.40
2023-04-25T01:36:17.504Z,14.50
2023-04-25T01:38:45.069Z,14.73
2023-04-25T01:41:12.326Z,15.30
2023-04-25T01:43:39.633Z,13.50
2023-04-25T01:46:06.926Z,12.30
2023-04-25T01:48:33.956Z,12.27
2023-04-25T01:51:00.982Z,12.07
2023-04-25T01:53:28.515Z,9.63
2023-04-25T01:55:55.740Z,13.97
2023-04-25T01:58:22.727Z,12.40
2023-04-25T02:00:49.761Z,13.57
2023-04-25T02:03:17.074Z,12.07
2023-04-25T02:05:44.161Z,15.83
2023-04-25T02:08:11.435Z,11.63
2023-04-25T02:10:38.753Z,13.00
2023-04-25T02:13:06.355Z,11.83
2023-04-25T02:15:33.416Z,15.03
2023-04-25T02:18:01.401Z,17.87
2023-04-25T02:20:31.196Z,12.87
2023-04-25T02:22:58.327Z,15.00
2023-04-25T02:25:25.755Z,14.10
2023-04-25T02:27:52.952Z,15.77
2023-04-25T02:30:20.541Z,12.20
2023-04-25T02:32:48.061Z,16.80
2023-04-25T02:35:15.060Z,19.13
2023-04-25T02:37:43.463Z,17.20
2023-04-25T02:40:11.282Z,13.43
2023-04-25T02:42:38.259Z,13.23
2023-04-25T02:45:05.952Z,18.37
2023-04-25T02:47:33.191Z,17.23
2023-04-25T02:50:00.332Z,17.00
2023-04-25T02:52:27.374Z,16.77
2023-04-25T02:54:54.409Z,13.93
2023-04-25T02:57:21.473Z,17.10
2023-04-25T02:59:48.474Z,16.03
2023-04-25T03:02:15.915Z,14.87
2023-04-25T03:04:43.238Z,20.13
2023-04-25T03:07:10.934Z,14.57
2023-04-25T03:09:37.933Z,18.03
2023-04-25T03:12:05.418Z,16.10
2023-04-25T03:14:32.538Z,12.00
2023-04-25T03:16:59.521Z,18.87
2023-04-25T03:19:26.773Z,10.17
2023-04-25T03:21:54.642Z,13.07
2023-04-25T03:24:21.637Z,19.33
2023-04-25T03:26:48.653Z,20.97
2023-04-25T03:29:15.684Z,18.83
2023-04-25T03:31:42.820Z,19.73
2023-04-25T03:34:09.897Z,17.10
2023-04-25T03:36:36.866Z,14.80
2023-04-25T03:39:03.969Z,16.07
2023-04-25T03:41:31.159Z,21.17
2023-04-25T03:43:58.147Z,13.53
2023-04-25T03:46:25.238Z,13.57
2023-04-25T03:48:52.329Z,22.23
2023-04-25T03:51:19.311Z,12.87
2023-04-25T03:53:46.347Z,17.23
2023-04-25T03:56:13.317Z,12.83
2023-04-25T03:58:40.477Z,18.60
2023-04-25T04:01:08.886Z,13.57
2023-04-25T04:03:37.404Z,15.27
2023-04-25T04:06:09.916Z,19.87
2023-04-25T04:08:36.968Z,17.37
2023-04-25T04:11:04.239Z,19.17
2023-04-25T04:13:31.540Z,11.77
2023-04-25T04:15:59.126Z,17.73
2023-04-25T04:18:26.391Z,12.80
2023-04-25T04:20:53.388Z,15.53
2023-04-25T04:23:21.702Z,15.10
2023-04-25T04:25:48.936Z,15.43
2023-04-25T04:28:17.268Z,15.50
2023-04-25T04:30:48.032Z,13.70
2023-04-25T04:33:19.921Z,17.03
2023-04-25T04:35:47.932Z,10.07
2023-04-25T04:38:16.584Z,19.63
2023-04-25T04:40:44.141Z,17.03
2023-04-25T04:43:11.403Z,18.90
2023-04-25T04:45:41.594Z,14.50
2023-04-25T04:48:09.766Z,18.77
2023-04-25T04:50:36.887Z,17.33
2023-04-25T04:53:05.326Z,14.93
2023-04-25T04:55:32.398Z,19.77
2023-04-25T04:57:59.404Z,16.67
2023-04-25T05:00:29.506Z,17.03
2023-04-25T05:02:57.779Z,19.10
2023-04-25T05:05:25.158Z,18.97
2023-04-25T05:07:52.439Z,17.80
2023-04-25T05:10:21.216Z,16.50
2023-04-25T05:12:48.381Z,12.50
2023-04-25T05:15:15.825Z,14.37
2023-04-25T05:17:42.957Z,16.23
2023-04-25T05:20:10.846Z,24.87
2023-04-25T05:22:38.394Z,13.83
2023-04-25T05:25:06.448Z,16.20
2023-04-25T05:27:33.527Z,15.67
2023-04-25T05:30:00.872Z,12.63
2023-04-25T05:32:28.354Z,18.00
2023-04-25T05:34:55.582Z,15.43
2023-04-25T05:37:22.894Z,20.60
2023-04-25T05:39:49.887Z,13.40
2023-04-25T05:42:16.989Z,12.03
2023-04-25T05:44:44.063Z,15.37
2023-04-25T05:47:11.218Z,19.17
2023-04-25T05:49:38.354Z,15.30
2023-04-25T05:52:05.789Z,18.27
2023-04-25T05:54:32.775Z,16.23
2023-04-25T05:56:59.832Z,8.27
2023-04-25T05:59:26.925Z,11.17
2023-04-25T06:01:53.934Z,13.17
2023-04-25T06:04:21.388Z,22.07
2023-04-25T06:06:48.661Z,14.90
2023-04-25T06:09:15.644Z,9.33
2023-04-25T06:11:42.695Z,12.20
2023-04-25T06:14:09.876Z,16.88
2023-04-25T06:16:36.981Z,17.33
2023-04-25T06:19:03.948Z,11.50
2023-04-25T06:21:30.951Z,11.70
2023-04-25T06:23:57.948Z,15.05
2023-04-25T06:26:24.981Z,13.13
2023-04-25T06:28:51.989Z,13.63
2023-04-25T06:31:19.002Z,10.95
2023-04-25T06:33:46.236Z,15.48
2023-04-25T06:36:13.240Z,17.65
2023-04-25T06:38:40.264Z,17.95
2023-04-25T06:41:07.405Z,15.35
2023-04-25T06:43:34.575Z,14.57
2023-04-25T06:46:01.856Z,10.52
2023-04-25T06:48:29.198Z,10.80
2023-04-25T06:50:57.452Z,15.25
2023-04-25T06:53:24.589Z,9.95
2023-04-25T06:55:51.676Z,11.68
2023-04-25T06:58:19.480Z,10.90
2023-04-25T07:00:46.552Z,11.05
2023-04-25T07:03:13.706Z,12.85
2023-04-25T07:05:40.847Z,9.73
2023-04-25T07:08:07.861Z,9.50
2023-04-25T07:10:34.870Z,8.52
2023-04-25T07:13:01.846Z,9.75
2023-04-25T07:15:28.850Z,8.00
2023-04-25T07:17:55.941Z,9.07
2023-04-25T07:20:23.056Z,12.30
2023-04-25T07:22:51.123Z,10.15
2023-04-25T07:25:18.533Z,6.47
2023-04-25T07:27:45.576Z,8.48
2023-04-25T07:30:13.430Z,6.70
2023-04-25T07:32:40.810Z,6.30
2023-04-25T07:35:08.822Z,6.25
2023-04-25T07:37:36.928Z,7.00
2023-04-25T07:40:05.244Z,4.45
2023-04-25T07:42:32.416Z,8.13
2023-04-25T07:44:59.470Z,8.70
2023-04-25T07:47:26.608Z,5.95
2023-04-25T07:49:53.746Z,5.22
2023-04-25T07:52:20.833Z,4.20
2023-04-25T07:54:48.802Z,4.72
2023-04-25T07:57:15.935Z,5.45
2023-04-25T07:59:42.965Z,7.22
2023-04-25T08:02:09.992Z,5.25
2023-04-25T08:04:37.365Z,7.95
2023-04-25T08:07:04.573Z,7.38
2023-04-25T08:09:35.598Z,5.38
2023-04-25T08:12:03.265Z,6.28
2023-04-25T08:14:36.525Z,6.75
2023-04-25T08:17:04.664Z,6.13
2023-04-25T08:19:32.171Z,5.75
2023-04-25T08:21:59.226Z,7.63
2023-04-25T08:24:26.243Z,5.65
2023-04-25T08:26:53.523Z,6.70
2023-04-25T08:29:20.875Z,7.05
2023-04-25T08:31:49.220Z,10.40
2023-04-25T08:34:16.480Z,5.53
2023-04-25T08:36:43.559Z,5.60
2023-04-25T08:39:10.537Z,4.53
2023-04-25T08:41:38.757Z,6.53
2023-04-25T08:44:10.278Z,7.13
2023-04-25T08:46:43.348Z,4.60
2023-04-25T08:49:12.386Z,6.05
2023-04-25T08:51:51.892Z,8.60
2023-04-25T08:54:34.178Z,4.28
2023-04-25T08:57:05.402Z,4.60
2023-04-25T08:59:34.022Z,6.85
2023-04-25T09:02:02.011Z,7.63
2023-04-25T09:04:31.993Z,6.93
2023-04-25T09:06:59.871Z,7.70
2023-04-25T09:09:26.918Z,7.75
2023-04-25T09:11:56.509Z,4.80
2023-04-25T09:14:27.003Z,6.10
2023-04-25T09:16:57.097Z,4.22
2023-04-25T09:19:39.053Z,5.22
2023-04-25T09:22:08.472Z,7.90
2023-04-25T09:24:44.603Z,5.70
2023-04-25T09:27:14.365Z,7.07
2023-04-25T09:29:43.108Z,6.32
2023-04-25T09:32:17.028Z,5.43
2023-04-25T09:34:49.413Z,6.15
2023-04-25T09:37:21.663Z,2.78
2023-04-25T09:40:01.472Z,4.63
2023-04-25T09:42:32.356Z,4.90
2023-04-25T09:45:03.281Z,7.10
2023-04-25T09:47:30.390Z,5.55
2023-04-25T09:49:57.444Z,4.68
2023-04-25T09:52:26.344Z,3.70
2023-04-25T09:54:54.313Z,3.25
2023-04-25T09:57:24.143Z,3.75
2023-04-25T09:59:56.132Z,4.55
2023-04-25T10:02:27.260Z,3.40
2023-04-25T10:04:58.495Z,5.20
2023-04-25T10:07:31.189Z,3.97
2023-04-25T10:10:07.003Z,7.53
2023-04-25T10:12:35.205Z,4.60
2023-04-25T10:15:04.006Z,5.72
2023-04-25T10:17:32.609Z,4.38
2023-04-25T10:20:02.634Z,3.65
2023-04-25T10:22:38.095Z,10.20
2023-04-25T10:25:07.644Z,4.38
2023-04-25T10:27:35.680Z,5.57
2023-04-25T10:30:19.407Z,3.42
2023-04-25T10:32:48.214Z,5.03
2023-04-25T10:35:25.127Z,3.13
2023-04-25T10:38:11.843Z,4.10
2023-04-25T10:40:39.244Z,9.02
2023-04-25T10:43:34.843Z,4.18
2023-04-25T10:46:02.635Z,4.05
2023-04-25T10:48:32.052Z,4.57
2023-04-25T10:51:13.241Z,4.18
2023-04-25T10:53:40.295Z,3.53
2023-04-25T10:56:42.344Z,2.35
2023-04-25T10:59:14.137Z,5.18
2023-04-25T11:01:52.544Z,5.45
2023-04-25T11:04:32.037Z,6.05
2023-04-25T11:07:11.290Z,3.47
2023-04-25T11:09:42.185Z,7.00
2023-04-25T11:12:12.489Z,3.78
2023-04-25T11:17:08.252Z,5.32
2023-04-25T11:19:35.422Z,5.72
2023-04-25T11:22:04.401Z,4.35
2023-04-25T11:24:36.583Z,5.25
2023-04-25T11:27:07.175Z,4.70
2023-04-25T11:29:36.144Z,4.53
2023-04-25T11:32:03.672Z,2.85
2023-04-25T11:34:34.167Z,4.63
2023-04-25T11:37:05.220Z,5.70
2023-04-25T11:39:32.364Z,3.65
2023-04-25T11:42:00.003Z,6.90
2023-04-25T11:44:29.630Z,6.80
2023-04-25T11:46:56.819Z,6.53
2023-04-25T11:49:25.771Z,5.30
2023-04-25T11:51:52.927Z,4.40
2023-04-25T11:54:19.943Z,4.68
2023-04-25T11:56:47.363Z,5.35
2023-04-25T11:59:15.209Z,5.43
2023-04-25T12:01:50.551Z,3.97
2023-04-25T12:04:23.855Z,5.97
2023-04-25T12:06:54.258Z,3.95
2023-04-25T12:09:30.393Z,4.82
2023-04-25T12:12:00.034Z,2.33
2023-04-25T12:14:30.046Z,3.10
2023-04-25T12:16:59.320Z,3.70
2023-04-25T12:19:27.370Z,3.80
2023-04-25T12:21:58.631Z,4.65
2023-04-25T12:24:28.775Z,3.58
2023-04-25T12:27:09.423Z,3.47
2023-04-25T12:29:48.577Z,4.93
2023-04-25T12:32:18.048Z,6.43
2023-04-25T12:34:46.087Z,4.20
2023-04-25T12:37:13.871Z,4.68
2023-04-25T12:39:41.034Z,4.15
2023-04-25T12:42:13.266Z,3.90
2023-04-25T12:44:41.651Z,2.63
2023-04-25T12:47:08.861Z,2.38
2023-04-25T12:49:35.954Z,2.78
2023-04-25T12:52:03.041Z,4.05
2023-04-25T12:54:30.051Z,4.25
2023-04-25T12:56:57.367Z,4.15
2023-04-25T12:59:24.472Z,4.35
2023-04-25T13:01:51.605Z,2.97
2023-04-25T13:04:18.805Z,6.30
2023-04-25T13:06:46.062Z,2.22
2023-04-25T13:09:13.638Z,3.03
2023-04-25T13:11:42.489Z,2.88
2023-04-25T13:14:10.791Z,3.67
2023-04-25T13:16:37.910Z,4.18
2023-04-25T13:19:04.978Z,5.60
2023-04-25T13:21:34.919Z,2.25
2023-04-25T13:24:02.004Z,1.10
2023-04-25T13:26:29.144Z,3.30
2023-04-25T13:28:56.144Z,5.90
2023-04-25T13:31:23.159Z,1.85
2023-04-25T13:33:51.271Z,5.55
2023-04-25T13:36:18.479Z,3.78
2023-04-25T13:38:48.196Z,4.82
2023-04-25T13:41:19.641Z,3.78
2023-04-25T13:43:49.061Z,1.73
2023-04-25T13:46:35.265Z,3.88
2023-04-25T13:49:12.388Z,5.13
2023-04-25T13:51:41.349Z,2.40
2023-04-25T13:54:08.727Z,5.43
2023-04-25T13:56:36.004Z,4.22
2023-04-25T13:59:03.054Z,2.30
2023-04-25T14:01:32.219Z,2.08
2023-04-25T14:03:59.470Z,4.72
2023-04-25T14:06:27.147Z,2.30
2023-04-25T14:08:55.441Z,3.55
2023-04-25T14:11:22.527Z,3.25
2023-04-25T14:13:50.598Z,4.00
2023-04-25T14:16:18.116Z,2.95
2023-04-25T14:18:45.417Z,3.22
2023-04-25T14:21:12.492Z,4.45
2023-04-25T14:23:39.478Z,2.03
2023-04-25T14:26:06.713Z,3.67
2023-04-25T14:28:33.763Z,3.75
2023-04-25T14:31:01.614Z,5.68
2023-04-25T14:33:28.886Z,4.22
2023-04-25T14:35:56.086Z,2.60
2023-04-25T14:38:24.434Z,4.07
2023-04-25T14:40:51.850Z,2.05
2023-04-25T14:43:19.104Z,5.15
2023-04-25T14:45:46.412Z,3.20
2023-04-25T14:48:13.754Z,4.60
2023-04-25T14:50:40.955Z,5.28
2023-04-25T14:53:07.972Z,3.17
2023-04-25T14:55:34.998Z,4.15
2023-04-25T14:58:02.116Z,5.00
2023-04-25T15:00:29.238Z,7.47
2023-04-25T15:02:57.207Z,3.28
2023-04-25T15:05:24.430Z,6.82
2023-04-25T15:07:51.576Z,3.78
2023-04-25T15:10:20.494Z,3.20
2023-04-25T15:12:48.012Z,2.20
2023-04-25T15:15:22.688Z,3.88
2023-04-25T15:17:52.833Z,3.17
2023-04-25T15:20:19.946Z,4.38
2023-04-25T15:22:47.111Z,5.25
2023-04-25T15:25:14.164Z,4.97
2023-04-25T15:27:44.507Z,2.25
2023-04-25T15:30:17.344Z,3.92
2023-04-25T15:32:48.578Z,6.30
2023-04-25T15:35:16.320Z,3.13
2023-04-25T15:37:44.133Z,1.38
2023-04-25T15:40:16.326Z,4.35
2023-04-25T15:42:48.209Z,3.20
2023-04-25T15:45:17.845Z,2.88
2023-04-25T15:47:46.029Z,3.22
2023-04-25T15:50:16.221Z,3.47
2023-04-25T15:52:43.770Z,3.67
2023-04-25T15:55:12.965Z,4.78
2023-04-25T15:57:42.074Z,6.22
2023-04-25T16:00:13.580Z,4.47
2023-04-25T16:02:42.080Z,3.60
2023-04-25T16:05:11.318Z,3.38
2023-04-25T16:07:44.864Z,2.80
2023-04-25T16:10:13.287Z,2.85
2023-04-25T16:12:41.122Z,4.28
2023-04-25T16:15:08.853Z,3.92
2023-04-25T16:17:36.025Z,7.78
2023-04-25T16:20:09.789Z,4.40
2023-04-25T16:22:40.347Z,4.00
2023-04-25T16:25:08.678Z,4.03
2023-04-25T16:27:37.993Z,5.57
2023-04-25T16:30:10.694Z,5.07
2023-04-25T16:32:38.278Z,6.03
2023-04-25T16:35:06.004Z,3.65
2023-04-25T16:37:33.246Z,4.43
2023-04-25T16:40:00.555Z,3.72
2023-04-25T16:42:27.604Z,3.92
2023-04-25T16:44:54.575Z,3.28
2023-04-25T16:47:22.165Z,2.67
2023-04-25T16:49:49.234Z,3.13
2023-04-25T16:52:16.397Z,2.40
2023-04-25T16:54:43.754Z,4.03
2023-04-25T16:57:11.474Z,2.40
2023-04-25T16:59:39.693Z,1.65
2023-04-25T17:02:10.690Z,3.70
2023-04-25T17:04:37.918Z,1.65
2023-04-25T17:07:05.602Z,3.85
2023-04-25T17:09:32.992Z,2.70
2023-04-25T17:12:00.437Z,2.50
2023-04-25T17:14:28.006Z,3.22
2023-04-25T17:16:55.455Z,4.60
2023-04-25T17:19:22.769Z,2.90
2023-04-25T17:21:50.520Z,3.70
2023-04-25T17:24:18.214Z,4.70
2023-04-25T17:26:48.166Z,4.60
2023-04-25T17:29:15.922Z,4.07
2023-04-25T17:31:44.120Z,3.67
2023-04-25T17:34:16.505Z,5.00
2023-04-25T17:36:45.354Z,3.80
2023-04-25T17:39:14.779Z,3.20
2023-04-25T17:41:42.092Z,3.45
2023-04-25T17:44:09.185Z,3.78
2023-04-25T17:46:36.591Z,5.70
2023-04-25T17:49:03.736Z,3.92
2023-04-25T17:51:31.695Z,3.33
2023-04-25T17:53:58.773Z,4.20
2023-04-25T17:56:27.592Z,3.42
2023-04-25T17:58:55.796Z,4.63
2023-04-25T18:01:23.283Z,2.28
2023-04-25T18:03:51.703Z,3.83
2023-04-25T18:06:19.342Z,4.10
2023-04-25T18:08:47.162Z,3.78
2023-04-25T18:11:14.438Z,2.95
2023-04-25T18:13:41.667Z,6.88
2023-04-25T18:16:08.857Z,5.00
2023-04-25T18:18:36.943Z,2.90
2023-04-25T18:21:07.471Z,4.72
2023-04-25T18:23:34.898Z,3.22
2023-04-25T18:26:04.066Z,3.38
2023-04-25T18:28:31.205Z,4.63
2023-04-25T18:30:58.342Z,4.03
2023-04-25T18:33:25.435Z,3.50
2023-04-25T18:38:34.889Z,2.78
2023-04-25T18:41:26.783Z,3.70
2023-04-25T18:43:56.218Z,2.95
2023-04-25T18:46:23.663Z,8.07
2023-04-25T18:48:55.066Z,3.38
2023-04-25T18:51:24.133Z,5.78
2023-04-25T18:53:52.539Z,4.25
2023-04-25T18:56:22.682Z,4.63
2023-04-25T18:58:51.440Z,2.63
2023-04-25T19:01:19.068Z,2.67
2023-04-25T19:03:46.534Z,8.13
2023-04-25T19:06:13.638Z,4.17
2023-04-25T19:08:40.739Z,2.95
2023-04-25T19:11:20.545Z,6.13
2023-04-25T19:13:49.446Z,4.00
2023-04-25T19:16:18.031Z,5.73
2023-04-25T19:18:46.525Z,2.83
2023-04-25T19:21:14.037Z,7.10
2023-04-25T19:23:41.826Z,3.23
2023-04-25T19:26:09.002Z,8.43
2023-04-25T19:28:36.074Z,4.00
2023-04-25T19:31:03.197Z,4.23
2023-04-25T19:33:30.513Z,4.07
2023-04-25T19:35:57.586Z,4.00
2023-04-25T19:38:24.605Z,3.03
2023-04-25T19:40:51.689Z,3.80
2023-04-25T19:43:19.645Z,7.55
2023-04-25T19:45:46.923Z,7.07
2023-04-25T19:48:14.185Z,5.50
2023-04-25T19:50:41.732Z,5.47
2023-04-25T19:53:09.940Z,3.20
2023-04-25T19:55:37.186Z,3.90
2023-04-25T19:58:06.738Z,2.83
2023-04-25T20:00:33.906Z,6.77
2023-04-25T20:03:01.234Z,4.07
2023-04-25T20:05:28.406Z,5.10
2023-04-25T20:07:55.449Z,3.93
2023-04-25T20:10:23.044Z,3.53
2023-04-25T20:12:50.037Z,9.13
2023-04-25T20:15:19.070Z,2.47
2023-04-25T20:17:46.419Z,4.87
2023-04-25T20:20:13.832Z,3.33
2023-04-25T20:22:41.109Z,3.60
2023-04-25T20:25:10.035Z,4.97
2023-04-25T20:27:39.916Z,7.40
2023-04-25T20:30:09.285Z,5.17
2023-04-25T20:32:37.491Z,7.37
2023-04-25T20:35:08.637Z,7.73
2023-04-25T20:37:36.716Z,5.77
2023-04-25T20:40:07.808Z,6.37
2023-04-25T20:42:36.494Z,6.73
2023-04-25T20:45:07.758Z,6.53
2023-04-25T20:47:35.377Z,8.00
2023-04-25T20:50:05.934Z,6.07
2023-04-25T20:52:33.407Z,5.77
2023-04-25T20:55:00.974Z,9.70
2023-04-25T20:57:29.262Z,5.53
2023-04-25T20:59:57.496Z,6.07
2023-04-25T21:02:24.975Z,6.10
2023-04-25T21:04:52.024Z,8.60
2023-04-25T21:07:19.619Z,5.70
2023-04-25T21:09:47.914Z,5.50
2023-04-25T21:12:15.199Z,5.53
2023-04-25T21:14:42.232Z,6.57
2023-04-25T21:17:09.324Z,6.30
2023-04-25T21:19:36.358Z,7.30
2023-04-25T21:22:03.706Z,13.33
2023-04-25T21:24:33.044Z,5.57
2023-04-25T21:27:01.094Z,6.13
2023-04-25T21:29:28.250Z,4.17
2023-04-25T21:31:56.646Z,10.57
2023-04-25T21:34:23.828Z,4.87
2023-04-25T21:36:50.837Z,5.00
2023-04-25T21:39:17.901Z,6.67
2023-04-25T21:41:45.001Z,8.67
2023-04-25T21:44:14.424Z,3.93
2023-04-25T21:46:41.579Z,5.17
2023-04-25T21:49:08.711Z,5.73
2023-04-25T21:51:36.048Z,9.13
2023-04-25T21:54:05.478Z,4.53
2023-04-25T21:56:33.255Z,8.27
2023-04-25T21:59:00.268Z,5.60
2023-04-25T22:01:28.798Z,11.23
2023-04-25T22:03:56.209Z,8.63
2023-04-25T22:06:23.589Z,8.30
2023-04-25T22:08:51.014Z,9.97
2023-04-25T22:11:18.180Z,6.40
2023-04-25T22:13:45.582Z,6.60
2023-04-25T22:16:12.744Z,9.33
2023-04-25T22:18:40.580Z,5.37
2023-04-25T22:21:08.776Z,4.30
2023-04-25T22:23:37.212Z,3.03
2023-04-25T22:26:05.069Z,6.93
2023-04-25T22:28:33.100Z,11.07
2023-04-25T22:31:00.136Z,5.37
2023-04-25T22:33:27.614Z,6.47
2023-04-25T22:35:54.687Z,4.37
2023-04-25T22:38:22.052Z,7.07
2023-04-25T22:40:49.070Z,5.23
2023-04-25T22:43:16.289Z,8.67
2023-04-25T22:45:43.331Z,7.67
2023-04-25T22:48:10.484Z,4.93
2023-04-25T22:50:40.389Z,7.37
2023-04-25T22:53:10.100Z,7.53
2023-04-25T22:55:37.372Z,5.57
2023-04-25T22:58:07.469Z,8.23
2023-04-25T23:00:35.369Z,6.27
2023-04-25T23:03:06.289Z,6.30
2023-04-25T23:05:33.770Z,7.50
2023-04-25T23:08:00.784Z,8.30
2023-04-25T23:10:31.031Z,7.17
2023-04-25T23:13:00.505Z,7.67
2023-04-25T23:15:30.987Z,7.57
2023-04-25T23:17:58.912Z,6.60
2023-04-25T23:20:26.680Z,6.13
2023-04-25T23:22:54.780Z,5.43
2023-04-25T23:25:22.459Z,4.33
2023-04-25T23:27:49.620Z,7.53
2023-04-25T23:30:16.882Z,5.53
2023-04-25T23:32:44.032Z,8.87
2023-04-25T23:35:11.464Z,7.13
2023-04-25T23:37:43.105Z,5.60
2023-04-25T23:40:10.779Z,6.27
2023-04-25T23:42:39.275Z,9.63
2023-04-25T23:45:08.592Z,9.37
2023-04-25T23:47:36.745Z,8.50
2023-04-25T23:50:04.838Z,9.70
2023-04-25T23:52:32.045Z,7.67
2023-04-25T23:54:59.113Z,6.53
2023-04-25T23:57:26.199Z,7.20
2023-04-25T23:59:53.376Z,7.40
